createdAt,value
2023-04-17T00:00:51.684Z,72.12
2023-04-17T00:01:50.746Z,72.27
2023-04-17T00:02:51.875Z,72.36
2023-04-17T00:03:51.988Z,72.35
2023-04-17T00:04:51.924Z,72.15
2023-04-17T00:05:51.882Z,72.23
2023-04-17T00:06:51.903Z,71.87
2023-04-17T00:07:51.963Z,71.65
2023-04-17T00:08:51.966Z,71.69
2023-04-17T00:09:51.961Z,71.71
2023-04-17T00:11:04.209Z,71.67
2023-04-17T00:11:52.005Z,71.55
2023-04-17T00:12:52.074Z,71.63
2023-04-17T00:13:52.046Z,71.46
2023-04-17T00:14:52.036Z,71.39
2023-04-17T00:15:52.066Z,71.70
2023-04-17T00:16:52.204Z,71.68
2023-04-17T00:17:52.189Z,71.67
2023-04-17T00:18:52.159Z,71.31
2023-04-17T00:19:53.287Z,71.13
2023-04-17T00:20:52.163Z,71.06
2023-04-17T00:21:52.177Z,70.82
2023-04-17T00:22:52.174Z,70.83
2023-04-17T00:23:52.169Z,70.68
2023-04-17T00:24:52.173Z,70.59
2023-04-17T00:25:52.175Z,70.51
2023-04-17T00:26:52.198Z,70.36
2023-04-17T00:27:52.186Z,70.43
2023-04-17T00:28:52.267Z,70.69
2023-04-17T00:29:52.239Z,71.09
2023-04-17T00:30:52.249Z,71.12
2023-04-17T00:31:52.391Z,71.24
2023-04-17T00:32:52.420Z,71.22
2023-04-17T00:33:52.465Z,71.46
2023-04-17T00:34:54.507Z,71.52
2023-04-17T00:35:52.547Z,71.54
2023-04-17T00:36:52.548Z,71.52
2023-04-17T00:37:52.582Z,71.26
2023-04-17T00:38:52.570Z,71.11
2023-04-17T00:39:52.614Z,71.05
2023-04-17T00:40:52.579Z,70.98
2023-04-17T00:41:52.573Z,70.78
2023-04-17T00:42:52.597Z,70.53
2023-04-17T00:43:52.559Z,70.40
2023-04-17T00:44:52.554Z,70.24
2023-04-17T00:45:52.627Z,70.00
2023-04-17T00:46:52.528Z,69.81
2023-04-17T00:47:52.523Z,69.65
2023-04-17T00:48:52.507Z,69.49
2023-04-17T00:49:52.488Z,69.35
2023-04-17T00:50:52.487Z,69.26
2023-04-17T00:51:52.472Z,69.44
2023-04-17T00:52:52.467Z,69.64
2023-04-17T00:53:52.458Z,69.44
2023-04-17T00:54:52.434Z,69.22
2023-04-17T00:55:52.435Z,68.98
2023-04-17T00:56:52.419Z,68.92
2023-04-17T00:57:52.423Z,68.84
2023-04-17T00:58:52.453Z,68.85
2023-04-17T00:59:52.413Z,68.95
2023-04-17T01:00:52.394Z,68.58
2023-04-17T01:01:52.536Z,68.05
2023-04-17T01:02:52.495Z,67.76
2023-04-17T01:03:52.586Z,67.72
2023-04-17T01:04:52.423Z,67.70
2023-04-17T01:05:52.362Z,67.66
2023-04-17T01:06:52.362Z,67.74
2023-04-17T01:07:52.372Z,67.80
2023-04-17T01:08:52.351Z,67.88
2023-04-17T01:09:52.343Z,67.84
2023-04-17T01:10:52.357Z,67.80
2023-04-17T01:11:52.354Z,67.76
2023-04-17T01:12:52.318Z,67.41
2023-04-17T01:13:52.305Z,67.38
2023-04-17T01:14:52.301Z,67.43
2023-04-17T01:15:52.303Z,67.41
2023-04-17T01:16:52.329Z,67.45
2023-04-17T01:17:52.420Z,67.54
2023-04-17T01:18:52.279Z,67.61
2023-04-17T01:19:52.278Z,67.45
2023-04-17T01:20:52.257Z,67.52
2023-04-17T01:21:52.243Z,67.54
2023-04-17T01:22:52.241Z,67.37
2023-04-17T01:23:52.257Z,67.60
2023-04-17T01:24:52.209Z,67.76
2023-04-17T01:25:52.197Z,67.46
2023-04-17T01:26:52.234Z,67.42
2023-04-17T01:27:52.302Z,67.49
2023-04-17T01:28:52.365Z,67.32
2023-04-17T01:29:52.422Z,67.00
2023-04-17T01:30:52.482Z,66.75
2023-04-17T01:31:52.524Z,66.91
2023-04-17T01:32:52.618Z,66.63
2023-04-17T01:33:52.681Z,66.15
2023-04-17T01:34:52.742Z,66.05
2023-04-17T01:35:52.782Z,66.12
2023-04-17T01:36:52.836Z,66.37
2023-04-17T01:37:52.900Z,66.38
2023-04-17T01:38:52.956Z,66.34
2023-04-17T01:39:53.027Z,66.37
2023-04-17T01:40:53.156Z,66.30
2023-04-17T01:41:53.155Z,66.33
2023-04-17T01:42:53.219Z,66.36
2023-04-17T01:43:53.285Z,66.12
2023-04-17T01:44:53.355Z,66.04
2023-04-17T01:45:53.421Z,66.18
2023-04-17T01:46:53.413Z,65.62
2023-04-17T01:47:53.421Z,65.67
2023-04-17T01:48:53.412Z,65.46
2023-04-17T01:49:53.437Z,65.26
2023-04-17T01:50:53.453Z,65.08
2023-04-17T01:51:53.464Z,64.80
2023-04-17T01:52:53.442Z,65.01
2023-04-17T01:53:53.500Z,64.96
2023-04-17T01:54:53.526Z,64.84
2023-04-17T01:55:53.604Z,64.97
2023-04-17T01:56:53.641Z,65.35
2023-04-17T01:57:53.694Z,65.56
2023-04-17T01:58:53.738Z,65.83
2023-04-17T01:59:53.749Z,66.25
2023-04-17T02:00:53.823Z,67.08
2023-04-17T02:01:54.046Z,67.49
2023-04-17T02:02:54.057Z,67.55
2023-04-17T02:03:54.436Z,67.46
2023-04-17T02:04:54.189Z,67.43
2023-04-17T02:05:54.238Z,67.54
2023-04-17T02:06:54.259Z,67.43
2023-04-17T02:07:54.336Z,67.41
2023-04-17T02:08:54.473Z,67.89
2023-04-17T02:09:54.504Z,68.08
2023-04-17T02:10:54.594Z,68.19
2023-04-17T02:11:54.666Z,68.17
2023-04-17T02:12:54.725Z,67.69
2023-04-17T02:13:54.778Z,67.77
2023-04-17T02:14:54.818Z,67.44
2023-04-17T02:15:54.894Z,67.50
2023-04-17T02:16:54.917Z,67.26
2023-04-17T02:17:55.045Z,67.22
2023-04-17T02:18:55.067Z,67.27
2023-04-17T02:19:55.122Z,67.36
2023-04-17T02:20:55.164Z,67.68
2023-04-17T02:21:56.355Z,67.72
2023-04-17T02:22:55.247Z,67.71
2023-04-17T02:23:55.281Z,67.83
2023-04-17T02:24:55.306Z,67.87
2023-04-17T02:25:55.334Z,67.82
2023-04-17T02:26:55.364Z,67.78
2023-04-17T02:27:55.376Z,67.70
2023-04-17T02:28:55.415Z,67.82
2023-04-17T02:29:55.407Z,67.92
2023-04-17T02:30:55.495Z,67.87
2023-04-17T02:31:55.452Z,67.69
2023-04-17T02:32:55.528Z,67.49
2023-04-17T02:33:55.489Z,67.46
2023-04-17T02:34:55.504Z,67.47
2023-04-17T02:35:55.501Z,67.59
2023-04-17T02:36:55.501Z,67.64
2023-04-17T02:37:55.550Z,67.54
2023-04-17T02:38:55.517Z,67.75
2023-04-17T02:39:55.536Z,67.81
2023-04-17T02:40:55.551Z,67.81
2023-04-17T02:41:55.559Z,67.78
2023-04-17T02:42:55.615Z,67.74
2023-04-17T02:43:55.579Z,67.67
2023-04-17T02:44:55.587Z,67.58
2023-04-17T02:45:55.611Z,67.56
2023-04-17T02:46:55.639Z,67.57
2023-04-17T02:47:55.718Z,67.49
2023-04-17T02:48:55.669Z,67.42
2023-04-17T02:49:55.665Z,67.38
2023-04-17T02:50:55.691Z,67.26
2023-04-17T02:51:55.685Z,67.21
2023-04-17T02:52:55.707Z,67.28
2023-04-17T02:53:55.738Z,67.82
2023-04-17T02:54:55.717Z,68.00
2023-04-17T02:55:55.717Z,67.73
2023-04-17T02:56:55.717Z,67.46
2023-04-17T02:57:55.728Z,67.54
2023-04-17T02:58:55.769Z,67.61
2023-04-17T02:59:55.824Z,67.69
2023-04-17T03:00:55.914Z,67.78
2023-04-17T03:01:56.074Z,67.93
2023-04-17T03:02:56.167Z,67.96
2023-04-17T03:03:56.614Z,67.92
2023-04-17T03:04:56.157Z,67.81
2023-04-17T03:05:56.219Z,67.74
2023-04-17T03:06:56.335Z,67.71
2023-04-17T03:07:56.352Z,67.63
2023-04-17T03:08:56.399Z,67.59
2023-04-17T03:09:56.495Z,67.48
2023-04-17T03:10:56.530Z,67.42
2023-04-17T03:11:56.612Z,67.60
2023-04-17T03:12:56.668Z,67.56
2023-04-17T03:13:56.729Z,67.88
2023-04-17T03:14:56.752Z,68.27
2023-04-17T03:15:56.846Z,68.88
2023-04-17T03:16:56.966Z,69.29
2023-04-17T03:17:57.076Z,69.45
2023-04-17T03:18:57.036Z,69.52
2023-04-17T03:19:57.136Z,69.47
2023-04-17T03:20:57.201Z,69.26
2023-04-17T03:21:57.265Z,69.02
2023-04-17T03:22:57.305Z,69.10
2023-04-17T03:23:57.326Z,69.21
2023-04-17T03:24:57.360Z,69.15
2023-04-17T03:25:57.441Z,68.95
2023-04-17T03:26:57.486Z,68.82
2023-04-17T03:27:57.532Z,68.66
2023-04-17T03:28:57.592Z,68.51
2023-04-17T03:29:57.653Z,68.35
2023-04-17T03:30:57.719Z,68.28
2023-04-17T03:31:57.861Z,68.57
2023-04-17T03:32:57.863Z,68.45
2023-04-17T03:33:57.898Z,68.23
2023-04-17T03:34:57.949Z,68.10
2023-04-17T03:35:58.006Z,68.28
2023-04-17T03:36:58.064Z,68.18
2023-04-17T03:37:58.158Z,68.34
2023-04-17T03:38:58.198Z,68.18
2023-04-17T03:39:58.256Z,68.22
2023-04-17T03:40:58.334Z,68.33
2023-04-17T03:41:58.400Z,68.59
2023-04-17T03:42:58.479Z,68.72
2023-04-17T03:43:58.492Z,68.91
2023-04-17T03:44:58.563Z,68.77
2023-04-17T03:45:58.670Z,69.21
2023-04-17T03:46:58.656Z,69.13
2023-04-17T03:47:58.807Z,68.88
2023-04-17T03:48:58.761Z,68.68
2023-04-17T03:49:58.846Z,68.40
2023-04-17T03:50:58.847Z,68.15
2023-04-17T03:51:58.897Z,67.98
2023-04-17T03:52:58.980Z,68.06
2023-04-17T03:53:59.012Z,68.39
2023-04-17T03:54:59.057Z,68.71
2023-04-17T03:55:59.129Z,69.28
2023-04-17T03:56:59.182Z,69.56
2023-04-17T03:57:59.206Z,69.71
2023-04-17T03:58:59.234Z,69.88
2023-04-17T03:59:59.281Z,69.81
2023-04-17T04:00:59.353Z,69.78
2023-04-17T04:01:59.497Z,69.83
2023-04-17T04:02:59.624Z,69.82
2023-04-17T04:03:59.555Z,69.74
2023-04-17T04:04:59.597Z,69.69
2023-04-17T04:05:59.601Z,69.71
2023-04-17T04:06:59.555Z,69.50
2023-04-17T04:07:59.587Z,69.43
2023-04-17T04:08:59.616Z,69.44
2023-04-17T04:09:59.665Z,69.62
2023-04-17T04:10:59.683Z,69.65
2023-04-17T04:11:59.718Z,69.56
2023-04-17T04:12:59.769Z,69.46
2023-04-17T04:13:59.844Z,69.37
2023-04-17T04:14:59.906Z,69.35
2023-04-17T04:16:00.153Z,69.27
2023-04-17T04:17:00.048Z,69.12
2023-04-17T04:18:00.158Z,69.45
2023-04-17T04:19:00.152Z,69.65
2023-04-17T04:20:00.219Z,69.48
2023-04-17T04:21:00.355Z,69.42
2023-04-17T04:22:00.349Z,69.52
2023-04-17T04:23:00.370Z,69.67
2023-04-17T04:24:00.399Z,69.83
2023-04-17T04:25:00.444Z,69.88
2023-04-17T04:26:00.499Z,69.68
2023-04-17T04:27:00.509Z,69.50
2023-04-17T04:28:00.560Z,69.48
2023-04-17T04:29:00.616Z,69.33
2023-04-17T04:30:00.670Z,69.18
2023-04-17T04:31:00.740Z,69.03
2023-04-17T04:32:00.720Z,68.69
2023-04-17T04:33:00.845Z,68.77
2023-04-17T04:34:00.840Z,68.82
2023-04-17T04:35:00.906Z,68.63
2023-04-17T04:36:01.273Z,68.63
2023-04-17T04:37:01.041Z,68.65
2023-04-17T04:38:01.117Z,68.55
2023-04-17T04:39:01.167Z,68.40
2023-04-17T04:40:01.208Z,68.26
2023-04-17T04:41:01.282Z,68.13
2023-04-17T04:42:01.339Z,68.18
2023-04-17T04:43:01.412Z,68.14
2023-04-17T04:44:01.522Z,67.98
2023-04-17T04:45:01.592Z,67.99
2023-04-17T04:46:01.714Z,68.01
2023-04-17T04:47:01.802Z,68.04
2023-04-17T04:48:01.698Z,68.02
2023-04-17T04:49:01.724Z,67.99
2023-04-17T04:50:01.701Z,67.95
2023-04-17T04:51:01.721Z,67.94
2023-04-17T04:52:01.733Z,68.02
2023-04-17T04:53:01.767Z,67.98
2023-04-17T04:54:01.785Z,67.95
2023-04-17T04:55:01.870Z,67.92
2023-04-17T04:56:01.810Z,67.97
2023-04-17T04:57:01.853Z,68.03
2023-04-17T04:58:01.884Z,67.98
2023-04-17T04:59:01.865Z,68.07
2023-04-17T05:00:01.981Z,68.44
2023-04-17T05:01:01.991Z,68.26
2023-04-17T05:02:02.053Z,67.99
2023-04-17T05:03:02.200Z,67.82
2023-04-17T05:04:02.223Z,67.79
2023-04-17T05:05:02.158Z,67.77
2023-04-17T05:06:02.075Z,67.74
2023-04-17T05:07:02.107Z,67.68
2023-04-17T05:08:02.059Z,67.62
2023-04-17T05:09:02.159Z,67.62
2023-04-17T05:10:02.057Z,67.69
2023-04-17T05:11:02.141Z,67.57
2023-04-17T05:12:02.067Z,67.51
2023-04-17T05:13:02.076Z,67.44
2023-04-17T05:14:02.096Z,67.45
2023-04-17T05:15:02.123Z,67.36
2023-04-17T05:16:02.248Z,67.09
2023-04-17T05:17:02.161Z,66.97
2023-04-17T05:18:02.229Z,66.83
2023-04-17T05:19:02.157Z,66.78
2023-04-17T05:20:02.145Z,66.63
2023-04-17T05:21:02.190Z,67.00
2023-04-17T05:22:02.172Z,67.18
2023-04-17T05:23:02.186Z,67.46
2023-04-17T05:24:02.373Z,67.75
2023-04-17T05:25:03.079Z,67.99
2023-04-17T05:26:02.568Z,68.17
2023-04-17T05:27:02.686Z,67.88
2023-04-17T05:28:03.052Z,67.46
2023-04-17T05:29:04.076Z,67.35
2023-04-17T05:30:03.999Z,67.14
2023-04-17T05:31:02.826Z,67.24
2023-04-17T05:32:03.121Z,67.17
2023-04-17T05:33:02.765Z,67.01
2023-04-17T05:34:03.032Z,66.99
2023-04-17T05:35:06.636Z,67.06
2023-04-17T05:36:05.099Z,66.87
2023-04-17T05:37:03.306Z,66.79
2023-04-17T05:38:03.426Z,66.95
2023-04-17T05:39:02.806Z,67.44
2023-04-17T05:40:02.851Z,67.58
2023-04-17T05:41:03.939Z,68.29
2023-04-17T05:42:04.580Z,68.39
2023-04-17T05:43:03.651Z,68.92
2023-04-17T05:44:03.751Z,69.37
2023-04-17T05:45:03.243Z,69.24
2023-04-17T05:46:03.214Z,69.20
2023-04-17T05:47:02.993Z,69.15
2023-04-17T05:48:03.114Z,68.88
2023-04-17T05:49:02.970Z,68.71
2023-04-17T05:50:02.032Z,68.69
2023-04-17T05:51:02.961Z,68.75
2023-04-17T05:52:03.469Z,68.86
2023-04-17T05:53:04.653Z,68.89
2023-04-17T05:54:04.223Z,68.34
2023-04-17T05:55:02.907Z,68.11
2023-04-17T05:56:03.113Z,67.77
2023-04-17T05:57:03.963Z,67.55
2023-04-17T05:58:16.891Z,67.49
2023-04-17T05:59:03.279Z,67.21
2023-04-17T06:00:34.986Z,66.97
2023-04-17T06:01:06.837Z,66.96
2023-04-17T06:02:03.476Z,67.04
2023-04-17T06:03:03.300Z,67.03
2023-04-17T06:04:03.511Z,66.91
2023-04-17T06:05:03.951Z,66.75
2023-04-17T06:06:03.355Z,66.53
2023-04-17T06:07:03.109Z,66.74
2023-04-17T06:08:06.870Z,66.81
2023-04-17T06:09:03.545Z,66.55
2023-04-17T06:10:03.034Z,66.26
2023-04-17T06:11:03.701Z,65.93
2023-04-17T06:12:03.034Z,65.84
2023-04-17T06:13:02.944Z,65.81
2023-04-17T06:14:05.078Z,65.63
2023-04-17T06:15:08.085Z,65.30
2023-04-17T06:16:03.052Z,65.29
2023-04-17T06:17:03.807Z,65.36
2023-04-17T06:18:05.090Z,65.36
2023-04-17T06:19:03.193Z,65.42
2023-04-17T06:20:03.282Z,65.43
2023-04-17T06:21:03.589Z,65.51
2023-04-17T06:22:08.719Z,65.62
2023-04-17T06:23:03.100Z,65.95
2023-04-17T06:24:03.053Z,65.81
2023-04-17T06:25:03.060Z,65.58
2023-04-17T06:26:03.313Z,65.20
2023-04-17T06:27:03.562Z,65.40
2023-04-17T06:28:15.410Z,65.44
2023-04-17T06:29:13.257Z,65.85
2023-04-17T06:30:08.794Z,65.89
2023-04-17T06:31:05.723Z,65.77
2023-04-17T06:32:09.685Z,65.29
2023-04-17T06:33:10.282Z,64.82
2023-04-17T06:34:09.864Z,64.64
2023-04-17T06:35:04.266Z,64.64
2023-04-17T06:36:06.746Z,64.43
2023-04-17T06:37:05.873Z,64.47
2023-04-17T06:38:03.267Z,64.32
2023-04-17T06:39:08.050Z,64.16
2023-04-17T06:40:03.988Z,64.05
2023-04-17T06:41:17.712Z,63.79
2023-04-17T06:42:30.584Z,64.09
2023-04-17T06:43:35.797Z,64.13
2023-04-17T06:44:26.082Z,64.14
2023-04-17T06:45:34.658Z,64.21
2023-04-17T06:46:26.903Z,64.54
2023-04-17T06:47:26.289Z,64.72
2023-04-17T06:48:24.499Z,64.89
2023-04-17T06:49:25.668Z,64.71
2023-04-17T06:50:30.209Z,64.41
2023-04-17T06:51:24.546Z,64.29
2023-04-17T06:52:24.933Z,64.13
2023-04-17T06:53:26.548Z,64.13
2023-04-17T06:54:27.421Z,64.26
2023-04-17T06:55:23.232Z,64.31
2023-04-17T06:56:24.887Z,64.08
2023-04-17T06:57:30.800Z,64.11
2023-04-17T06:58:24.965Z,64.35
2023-04-17T06:59:29.381Z,64.17
2023-04-17T07:00:27.612Z,64.16
2023-04-17T07:01:27.951Z,64.46
2023-04-17T07:02:27.987Z,64.28
2023-04-17T07:03:28.692Z,64.31
2023-04-17T07:04:26.554Z,64.01
2023-04-17T07:05:24.372Z,63.80
2023-04-17T07:06:25.086Z,63.65
2023-04-17T07:07:29.588Z,63.51
2023-04-17T07:08:27.417Z,63.24
2023-04-17T07:09:38.832Z,63.15
2023-04-17T07:10:51.729Z,63.11
2023-04-17T07:11:55.236Z,63.10
2023-04-17T07:12:45.780Z,63.53
2023-04-17T07:13:49.235Z,62.87
2023-04-17T07:14:45.178Z,62.65
2023-04-17T07:15:52.754Z,62.71
2023-04-17T07:16:50.548Z,62.88
2023-04-17T07:17:44.274Z,62.55
2023-04-17T07:18:43.418Z,62.41
2023-04-17T07:19:43.245Z,61.92
2023-04-17T07:20:44.289Z,61.79
2023-04-17T07:21:45.303Z,62.15
2023-04-17T07:22:48.305Z,61.14
2023-04-17T07:23:50.238Z,60.86
2023-04-17T07:24:52.343Z,60.65
2023-04-17T07:25:43.781Z,60.15
2023-04-17T07:26:43.883Z,60.16
2023-04-17T07:27:44.698Z,59.30
2023-04-17T07:28:43.974Z,59.51
2023-04-17T07:29:43.510Z,60.05
2023-04-17T07:30:44.610Z,60.35
2023-04-17T07:31:53.301Z,60.01
2023-04-17T07:32:46.781Z,59.79
2023-04-17T07:33:46.215Z,59.31
2023-04-17T07:34:45.113Z,59.09
2023-04-17T07:35:43.545Z,58.84
2023-04-17T07:36:45.093Z,58.28
2023-04-17T07:37:43.654Z,58.05
2023-04-17T07:38:44.215Z,57.69
2023-04-17T07:39:45.172Z,57.55
2023-04-17T07:40:45.715Z,57.53
2023-04-17T07:41:44.538Z,57.18
2023-04-17T07:42:45.718Z,56.95
2023-04-17T07:43:44.484Z,56.76
2023-04-17T07:44:43.621Z,57.11
2023-04-17T07:45:43.953Z,57.18
2023-04-17T07:46:44.414Z,57.35
2023-04-17T07:47:45.088Z,57.18
2023-04-17T07:48:44.870Z,57.72
2023-04-17T07:49:46.728Z,57.60
2023-04-17T07:50:44.910Z,57.67
2023-04-17T07:51:43.551Z,57.44
2023-04-17T07:52:45.726Z,57.53
2023-04-17T07:53:44.187Z,57.94
2023-04-17T07:54:45.978Z,58.15
2023-04-17T07:55:46.211Z,58.69
2023-04-17T07:56:45.050Z,59.49
2023-04-17T07:57:45.486Z,60.35
2023-04-17T07:58:48.148Z,60.92
2023-04-17T07:59:46.667Z,61.07
2023-04-17T08:01:16.999Z,61.03
2023-04-17T08:01:46.083Z,61.89
2023-04-17T08:02:47.856Z,62.77
2023-04-17T08:03:46.962Z,62.55
2023-04-17T08:04:45.369Z,62.94
2023-04-17T08:05:44.735Z,62.30
2023-04-17T08:06:46.732Z,62.38
2023-04-17T08:07:54.720Z,61.66
2023-04-17T08:08:55.458Z,61.81
2023-04-17T08:09:44.944Z,61.50
2023-04-17T08:10:46.028Z,61.31
2023-04-17T08:11:56.179Z,61.03
2023-04-17T08:12:46.723Z,60.98
2023-04-17T08:13:48.728Z,60.78
2023-04-17T08:14:46.768Z,60.71
2023-04-17T08:15:46.728Z,60.88
2023-04-17T08:16:47.777Z,60.60
2023-04-17T08:17:44.909Z,61.15
2023-04-17T08:18:46.381Z,61.24
2023-04-17T08:19:45.107Z,61.79
2023-04-17T08:20:47.092Z,62.21
2023-04-17T08:21:48.779Z,62.53
2023-04-17T08:24:05.481Z,62.56
2023-04-17T08:25:14.520Z,62.29
2023-04-17T08:26:07.111Z,62.03
2023-04-17T08:27:19.928Z,61.46
2023-04-17T08:28:07.148Z,61.37
2023-04-17T08:29:06.900Z,61.19
2023-04-17T08:30:06.165Z,61.01
2023-04-17T08:31:06.104Z,60.30
2023-04-17T08:32:14.745Z,60.13
2023-04-17T08:33:09.367Z,60.79
2023-04-17T08:34:14.535Z,59.95
2023-04-17T08:35:08.060Z,60.09
2023-04-17T08:36:08.602Z,60.32
2023-04-17T08:37:06.790Z,61.08
2023-04-17T08:38:04.345Z,61.21
2023-04-17T08:39:05.854Z,61.61
2023-04-17T08:40:06.784Z,61.43
2023-04-17T08:41:04.218Z,61.08
2023-04-17T08:42:05.207Z,61.44
2023-04-17T08:43:04.445Z,61.26
2023-04-17T08:44:04.376Z,60.72
2023-04-17T08:45:04.713Z,60.95
2023-04-17T08:46:05.264Z,60.47
2023-04-17T08:47:03.998Z,60.84
2023-04-17T08:48:05.280Z,61.43
2023-04-17T08:49:05.623Z,61.83
2023-04-17T08:50:04.993Z,62.55
2023-04-17T08:51:05.708Z,63.03
2023-04-17T08:52:04.476Z,63.01
2023-04-17T08:53:04.548Z,62.55
2023-04-17T08:54:04.996Z,62.37
2023-04-17T08:55:05.415Z,62.41
2023-04-17T08:56:06.887Z,62.25
2023-04-17T08:57:06.792Z,62.16
2023-04-17T08:58:06.802Z,62.52
2023-04-17T08:59:04.877Z,62.80
2023-04-17T09:00:05.056Z,62.68
2023-04-17T09:01:05.502Z,62.99
2023-04-17T09:02:05.373Z,62.89
2023-04-17T09:03:05.302Z,62.89
2023-04-17T09:04:05.348Z,62.25
2023-04-17T09:05:07.316Z,62.37
2023-04-17T09:06:08.099Z,62.10
2023-04-17T09:07:06.627Z,62.36
2023-04-17T09:08:05.366Z,62.86
2023-04-17T09:09:04.476Z,63.53
2023-04-17T09:10:07.793Z,64.20
2023-04-17T09:11:05.792Z,64.72
2023-04-17T09:12:06.792Z,64.16
2023-04-17T09:13:05.389Z,63.72
2023-04-17T09:14:06.792Z,62.85
2023-04-17T09:15:07.421Z,62.43
2023-04-17T09:16:08.100Z,62.49
2023-04-17T09:17:05.184Z,62.83
2023-04-17T09:18:04.851Z,63.00
2023-04-17T09:19:05.099Z,63.28
2023-04-17T09:20:05.307Z,63.47
2023-04-17T09:21:07.431Z,63.80
2023-04-17T09:22:06.792Z,63.94
2023-04-17T09:23:07.422Z,64.31
2023-04-17T09:24:04.768Z,64.12
2023-04-17T09:25:06.452Z,63.72
2023-04-17T09:26:04.489Z,63.27
2023-04-17T09:27:10.474Z,63.94
2023-04-17T09:28:13.058Z,64.39
2023-04-17T09:29:04.288Z,64.62
2023-04-17T09:30:05.165Z,64.92
2023-04-17T09:31:06.026Z,65.27
2023-04-17T09:32:06.195Z,65.16
2023-04-17T09:33:06.806Z,65.27
2023-04-17T09:34:06.127Z,65.47
2023-04-17T09:35:07.448Z,66.14
2023-04-17T09:36:05.978Z,66.09
2023-04-17T09:37:07.075Z,66.80
2023-04-17T09:38:06.806Z,67.19
2023-04-17T09:39:05.565Z,67.51
2023-04-17T09:40:06.047Z,67.62
2023-04-17T09:41:07.045Z,66.94
2023-04-17T09:42:06.047Z,66.63
2023-04-17T09:43:09.442Z,65.97
2023-04-17T09:44:05.808Z,65.51
2023-04-17T09:45:06.810Z,64.94
2023-04-17T09:46:04.614Z,64.72
2023-04-17T09:47:04.885Z,64.82
2023-04-17T09:48:04.714Z,65.02
2023-04-17T09:49:05.960Z,65.48
2023-04-17T09:50:05.691Z,65.84
2023-04-17T09:51:09.194Z,65.64
2023-04-17T09:52:05.070Z,65.33
2023-04-17T09:53:05.362Z,64.96
2023-04-17T09:54:04.536Z,65.87
2023-04-17T09:55:05.077Z,65.78
2023-04-17T09:56:04.739Z,66.15
2023-04-17T09:57:04.660Z,66.47
2023-04-17T09:58:05.169Z,66.33
2023-04-17T09:59:05.021Z,66.61
2023-04-17T10:00:06.589Z,66.44
2023-04-17T10:01:06.912Z,65.60
2023-04-17T10:02:12.693Z,64.92
2023-04-17T10:03:05.856Z,65.16
2023-04-17T10:04:04.622Z,65.04
2023-04-17T10:05:04.719Z,64.87
2023-04-17T10:06:07.870Z,64.92
2023-04-17T10:07:05.162Z,65.18
2023-04-17T10:08:04.256Z,65.08
2023-04-17T10:09:17.389Z,64.26
2023-04-17T10:10:30.344Z,64.47
2023-04-17T10:11:25.147Z,63.66
2023-04-17T10:12:26.108Z,63.37
2023-04-17T10:13:24.112Z,63.34
2023-04-17T10:14:23.974Z,63.90
2023-04-17T10:15:26.944Z,63.95
2023-04-17T10:16:27.167Z,64.43
2023-04-17T10:17:25.929Z,64.71
2023-04-17T10:18:24.949Z,64.55
2023-04-17T10:19:23.959Z,65.23
2023-04-17T10:20:24.469Z,65.94
2023-04-17T10:21:24.081Z,66.39
2023-04-17T10:22:24.236Z,66.81
2023-04-17T10:23:25.343Z,66.62
2023-04-17T10:24:25.528Z,66.66
2023-04-17T10:25:25.428Z,66.69
2023-04-17T10:26:26.499Z,66.48
2023-04-17T10:27:25.209Z,66.70
2023-04-17T10:28:24.751Z,67.12
2023-04-17T10:29:24.944Z,67.30
2023-04-17T10:30:24.568Z,67.82
2023-04-17T10:31:26.232Z,67.89
2023-04-17T10:32:25.265Z,68.57
2023-04-17T10:33:25.675Z,68.18
2023-04-17T10:34:25.056Z,67.76
2023-04-17T10:35:24.992Z,68.00
2023-04-17T10:36:25.152Z,68.09
2023-04-17T10:37:25.607Z,67.96
2023-04-17T10:38:28.489Z,68.32
2023-04-17T10:39:25.119Z,68.48
2023-04-17T10:40:26.793Z,68.67
2023-04-17T10:41:27.528Z,68.53
2023-04-17T10:42:25.929Z,68.78
2023-04-17T10:43:27.611Z,68.95
2023-04-17T10:44:26.317Z,68.56
2023-04-17T10:45:27.801Z,68.40
2023-04-17T10:46:25.502Z,67.89
2023-04-17T10:47:28.386Z,68.12
2023-04-17T10:48:27.040Z,68.28
2023-04-17T10:49:25.281Z,68.10
2023-04-17T10:50:26.058Z,68.13
2023-04-17T10:51:29.468Z,67.88
2023-04-17T10:53:44.794Z,67.71
2023-04-17T10:54:53.098Z,67.23
2023-04-17T10:55:49.123Z,67.21
2023-04-17T10:56:49.287Z,66.70
2023-04-17T10:57:48.420Z,66.58
2023-04-17T10:58:47.716Z,66.38
2023-04-17T10:59:48.571Z,66.55
2023-04-17T11:00:47.026Z,66.16
2023-04-17T11:01:48.776Z,66.52
2023-04-17T11:02:47.025Z,66.78
2023-04-17T11:03:48.435Z,66.74
2023-04-17T11:04:45.936Z,66.40
2023-04-17T11:05:46.220Z,66.25
2023-04-17T11:06:48.026Z,66.15
2023-04-17T11:07:45.382Z,66.11
2023-04-17T11:08:47.035Z,65.79
2023-04-17T11:09:47.028Z,65.11
2023-04-17T11:10:51.589Z,64.62
2023-04-17T11:11:45.610Z,63.73
2023-04-17T11:12:45.311Z,63.92
2023-04-17T11:13:48.637Z,63.18
2023-04-17T11:14:44.537Z,61.36
2023-04-17T11:15:51.090Z,61.42
2023-04-17T11:16:46.951Z,61.09
2023-04-17T11:17:48.229Z,61.30
2023-04-17T11:18:48.928Z,60.80
2023-04-17T11:19:47.569Z,60.64
2023-04-17T11:20:52.411Z,60.65
2023-04-17T11:21:46.040Z,60.31
2023-04-17T11:22:45.036Z,59.69
2023-04-17T11:23:46.047Z,59.99
2023-04-17T11:24:47.036Z,59.74
2023-04-17T11:25:46.114Z,59.17
2023-04-17T11:26:46.033Z,58.71
2023-04-17T11:27:47.112Z,58.37
2023-04-17T11:28:46.033Z,58.53
2023-04-17T11:29:47.033Z,58.29
2023-04-17T11:30:45.241Z,58.06
2023-04-17T11:31:43.938Z,56.71
2023-04-17T11:32:44.520Z,56.56
2023-04-17T11:33:44.704Z,56.26
2023-04-17T11:34:44.984Z,56.85
2023-04-17T11:35:44.308Z,56.78
2023-04-17T11:36:43.909Z,56.78
2023-04-17T11:37:44.246Z,56.79
2023-04-17T11:38:45.185Z,55.89
2023-04-17T11:39:45.035Z,55.66
2023-04-17T11:40:44.486Z,55.62
2023-04-17T11:41:43.588Z,55.69
2023-04-17T11:42:46.251Z,55.41
2023-04-17T11:43:45.238Z,55.10
2023-04-17T11:44:47.021Z,54.86
2023-04-17T11:45:46.120Z,55.05
2023-04-17T11:46:45.617Z,53.70
2023-04-17T11:47:44.527Z,53.64
2023-04-17T11:48:45.269Z,53.82
2023-04-17T11:49:45.064Z,53.18
2023-04-17T11:50:44.068Z,53.88
2023-04-17T11:51:44.514Z,53.45
2023-04-17T11:52:43.521Z,53.89
2023-04-17T11:53:45.071Z,53.42
2023-04-17T11:54:46.036Z,53.23
2023-04-17T11:55:45.123Z,52.90
2023-04-17T11:56:45.038Z,52.69
2023-04-17T11:57:45.103Z,52.34
2023-04-17T11:58:44.041Z,52.95
2023-04-17T11:59:46.051Z,53.24
2023-04-17T12:00:43.044Z,53.39
2023-04-17T12:01:45.043Z,52.78
2023-04-17T12:02:44.202Z,52.98
2023-04-17T12:03:45.598Z,52.81
2023-04-17T12:04:44.258Z,52.01
2023-04-17T12:05:44.109Z,51.71
2023-04-17T12:06:42.652Z,51.94
2023-04-17T12:07:42.241Z,51.36
2023-04-17T12:08:41.782Z,50.64
2023-04-17T12:09:41.673Z,51.23
2023-04-17T12:10:42.237Z,51.09
2023-04-17T12:11:44.043Z,51.49
2023-04-17T12:12:43.041Z,51.52
2023-04-17T12:13:43.049Z,50.79
2023-04-17T12:14:43.057Z,51.26
2023-04-17T12:15:42.046Z,51.07
2023-04-17T12:16:44.093Z,51.13
2023-04-17T12:17:42.064Z,51.03
2023-04-17T12:18:43.045Z,50.71
2023-04-17T12:19:42.047Z,51.35
2023-04-17T12:20:42.136Z,51.75
2023-04-17T12:21:44.056Z,51.37
2023-04-17T12:22:43.045Z,50.81
2023-04-17T12:23:42.046Z,50.88
2023-04-17T12:24:43.046Z,51.35
2023-04-17T12:25:42.053Z,51.42
2023-04-17T12:26:42.051Z,51.32
2023-04-17T12:27:42.051Z,50.80
2023-04-17T12:28:42.047Z,52.05
2023-04-17T12:29:44.523Z,51.59
2023-04-17T12:30:42.089Z,52.81
2023-04-17T12:31:41.135Z,53.29
2023-04-17T12:32:42.105Z,51.09
2023-04-17T12:33:42.053Z,51.12
2023-04-17T12:34:41.111Z,51.20
2023-04-17T12:35:41.050Z,51.15
2023-04-17T12:36:43.058Z,51.26
2023-04-17T12:37:41.053Z,50.69
2023-04-17T12:38:42.052Z,51.14
2023-04-17T12:39:41.055Z,51.49
2023-04-17T12:40:41.051Z,51.79
2023-04-17T12:41:41.062Z,51.79
2023-04-17T12:42:48.611Z,51.92
2023-04-17T12:43:41.052Z,51.62
2023-04-17T12:44:41.056Z,50.90
2023-04-17T12:45:42.387Z,50.59
2023-04-17T12:46:43.053Z,50.94
2023-04-17T12:47:41.122Z,51.31
2023-04-17T12:48:42.052Z,51.26
2023-04-17T12:49:41.056Z,51.01
2023-04-17T12:50:40.062Z,51.03
2023-04-17T12:51:41.066Z,50.24
2023-04-17T12:52:42.059Z,51.60
2023-04-17T12:53:40.063Z,52.31
2023-04-17T12:54:41.053Z,52.52
2023-04-17T12:55:41.099Z,52.95
2023-04-17T12:56:42.054Z,53.05